This is the latest recevied weather packets stored in our database for station/object PY3MO-13. If no packets are shown the sender has not sent any weather packets the latest 10 day(s).
| Time | Temp. | Humidity | Pressure | Rain* | Wind** | Luminosity | Snow |
|---|---|---|---|---|---|---|---|
| 1777551171 | 20.56° C | 54% | 1019.3 hPa | 0 mm | - | - | - |
| 1777550871 | 20.56° C | 54% | 1019.1 hPa | 0 mm | - | - | - |
| 1777550570 | 20.56° C | 56% | 1019.1 hPa | 0 mm | - | - | - |
| 1777550272 | 20.56° C | 57% | 1018.9 hPa | 0 mm | - | - | - |
| 1777549971 | 20° C | 60% | 1019 hPa | 0 mm | - | - | - |
| 1777549671 | 19.44° C | 60% | 1018.9 hPa | 0 mm | - | - | - |
| 1777549370 | 18.33° C | 62% | 1019 hPa | 0 mm | - | - | - |
| 1777549072 | 17.78° C | 69% | 1018.8 hPa | 0 mm | - | - | - |
| 1777548771 | 16.11° C | 79% | 1018.9 hPa | 0 mm | - | - | - |
| 1777548471 | 13.89° C | 82% | 1018.9 hPa | 0 mm | - | - | - |
| 1777548170 | 12.22° C | 86% | 1018.7 hPa | 0 mm | - | - | - |
| 1777547870 | 11.67° C | 87% | 1018.6 hPa | 0 mm | - | - | - |
| 1777547571 | 11.11° C | 89% | 1018.6 hPa | 0 mm | - | - | - |
| 1777547271 | 10.56° C | 90% | 1018.4 hPa | 0 mm | - | - | - |
| 1777546970 | 10.56° C | 91% | 1018.3 hPa | 0 mm | - | - | - |
| 1777546672 | 10.56° C | 92% | 1018.3 hPa | 0 mm | - | - | - |
| 1777546371 | 10° C | 92% | 1018.2 hPa | 0 mm | - | - | - |
| 1777546071 | 10° C | 93% | 1018.2 hPa | 0 mm | - | - | - |
| 1777545770 | 10° C | 93% | 1018.1 hPa | 0 mm | - | - | - |
| 1777545472 | 9.44° C | 93% | 1018 hPa | 0 mm | - | - | - |
| 1777545171 | 9.44° C | 94% | 1018 hPa | 0 mm | - | - | - |
| 1777544871 | 9.44° C | 94% | 1017.9 hPa | 0 mm | - | - | - |
| 1777544570 | 8.89° C | 94% | 1017.9 hPa | 0 mm | - | - | - |
| 1777544271 | 8.89° C | 93% | 1018 hPa | 0 mm | - | - | - |
| 1777543971 | 8.89° C | 93% | 1017.8 hPa | 0 mm | - | - | - |
* Rain latest hour (hover to see other rain measurements)
** Current wind speed in m/s (hover to see current wind gust speed)